Time,TemperatureF,DewpointF,PressureIn,WindDirection,WindDirectionDegrees,WindSpeedMPH,WindSpeedGustMPH,Humidity,HourlyPrecipIn,Conditions,Clouds,dailyrainin,SoftwareType,DateUTC
2013-09-22 00:08:00,61.9,51.0,25.07,SSE,160,3.0,8.0,68,0.00,,,0.00,weatherlink.com 1.10,2013-09-22 06:08:00,
2013-09-22 00:23:00,61.3,51.0,25.07,ESE,122,6.0,9.0,69,0.00,,,0.00,weatherlink.com 1.10,2013-09-22 06:23:00,
2013-09-22 00:38:00,61.4,50.0,25.06,SSW,198,6.0,11.0,67,0.00,,,0.00,weatherlink.com 1.10,2013-09-22 06:38:00,
2013-09-22 00:53:00,62.0,50.0,25.06,SSE,148,7.0,10.0,65,0.00,,,0.00,weatherlink.com 1.10,2013-09-22 06:53:00,
2013-09-22 01:08:00,62.0,50.0,25.06,SSE,155,5.0,11.0,64,0.00,,,0.00,weatherlink.com 1.10,2013-09-22 07:08:00,
2013-09-22 01:23:00,62.1,50.0,25.06,SSW,200,1.0,7.0,64,0.00,,,0.00,weatherlink.com 1.10,2013-09-22 07:23:00,
2013-09-22 01:38:00,59.1,49.0,25.06,NNE,28,1.0,3.0,70,0.00,,,0.00,weatherlink.com 1.10,2013-09-22 07:38:00,
2013-09-22 01:53:00,57.4,49.0,25.05,North,11,0.0,2.0,74,0.00,,,0.00,weatherlink.com 1.10,2013-09-22 07:53:00,
2013-09-22 02:08:00,56.9,49.0,25.05,NNE,16,0.0,1.0,76,0.00,,,0.00,weatherlink.com 1.10,2013-09-22 08:08:00,
2013-09-22 02:24:00,57.2,49.0,25.05,NNE,24,1.0,3.0,75,0.00,,,0.00,weatherlink.com 1.10,2013-09-22 08:24:00,
2013-09-22 02:39:00,57.7,49.0,25.04,North,7,2.0,2.0,73,0.00,,,0.00,weatherlink.com 1.10,2013-09-22 08:39:00,
2013-09-22 02:54:00,57.5,49.0,25.04,NW,308,1.0,3.0,74,0.00,,,0.00,weatherlink.com 1.10,2013-09-22 08:54:00,
2013-09-22 03:09:00,57.4,50.0,25.04,NW,320,2.0,3.0,75,0.00,,,0.00,weatherlink.com 1.10,2013-09-22 09:09:00,
2013-09-22 03:24:00,58.2,49.0,25.04,SSW,205,1.0,4.0,72,0.00,,,0.00,weatherlink.com 1.10,2013-09-22 09:24:00,
2013-09-22 03:39:00,58.0,49.0,25.04,SW,222,2.0,3.0,72,0.00,,,0.00,weatherlink.com 1.10,2013-09-22 09:39:00,
2013-09-22 03:54:00,57.0,48.0,25.04,WSW,250,3.0,4.0,73,0.00,,,0.00,weatherlink.com 1.10,2013-09-22 09:54:00,
2013-09-22 04:09:00,56.1,48.0,25.04,West,278,1.0,2.0,74,0.00,,,0.00,weatherlink.com 1.10,2013-09-22 10:09:00,
2013-09-22 04:24:00,55.3,47.0,25.04,WSW,255,1.0,2.0,74,0.00,,,0.00,weatherlink.com 1.10,2013-09-22 10:24:00,
2013-09-22 04:39:00,54.4,47.0,25.04,West,276,0.0,3.0,76,0.00,,,0.00,weatherlink.com 1.10,2013-09-22 10:39:00,
2013-09-22 04:54:00,52.8,46.0,25.04,West,269,0.0,1.0,79,0.00,,,0.00,weatherlink.com 1.10,2013-09-22 10:54:00,
2013-09-22 05:09:00,52.2,47.0,25.04,West,267,0.0,1.0,81,0.00,,,0.00,weatherlink.com 1.10,2013-09-22 11:09:00,
2013-09-22 05:24:00,50.7,46.0,25.03,West,280,2.0,2.0,83,0.00,,,0.00,weatherlink.com 1.10,2013-09-22 11:24:00,
2013-09-22 05:39:00,50.1,46.0,25.03,West,275,1.0,1.0,85,0.00,,,0.00,weatherlink.com 1.10,2013-09-22 11:39:00,
2013-09-22 05:54:00,49.4,45.0,25.03,WNW,294,1.0,4.0,85,0.00,,,0.00,weatherlink.com 1.10,2013-09-22 11:54:00,
2013-09-22 06:09:00,49.6,45.0,25.03,West,266,0.0,4.0,85,0.00,,,0.00,weatherlink.com 1.10,2013-09-22 12:09:00,
2013-09-22 06:24:00,49.0,45.0,25.03,SE,138,0.0,0.0,87,0.00,,,0.00,weatherlink.com 1.10,2013-09-22 12:24:00,
2013-09-22 06:39:00,49.1,45.0,25.03,West,273,1.0,1.0,87,0.00,,,0.00,weatherlink.com 1.10,2013-09-22 12:39:00,
2013-09-22 06:54:00,49.9,46.0,25.03,West,262,3.0,4.0,85,0.00,,,0.00,weatherlink.com 1.10,2013-09-22 12:54:00,
2013-09-22 07:09:00,50.7,46.0,25.04,West,270,0.0,3.0,84,0.00,,,0.00,weatherlink.com 1.10,2013-09-22 13:09:00,
2013-09-22 07:24:00,51.4,47.0,25.03,WNW,300,1.0,2.0,85,0.00,,,0.00,weatherlink.com 1.10,2013-09-22 13:24:00,
2013-09-22 07:39:00,53.1,48.0,25.02,NW,321,3.0,4.0,82,0.00,,,0.00,weatherlink.com 1.10,2013-09-22 13:39:00,
2013-09-22 07:54:00,54.8,48.0,25.02,West,267,6.0,8.0,78,0.00,,,0.00,weatherlink.com 1.10,2013-09-22 13:54:00,
2013-09-22 08:09:00,56.5,49.0,25.02,WSW,255,0.0,5.0,75,0.00,,,0.00,weatherlink.com 1.10,2013-09-22 14:09:00,
2013-09-22 08:24:00,59.7,51.0,25.02,NNW,338,0.0,2.0,72,0.00,,,0.00,weatherlink.com 1.10,2013-09-22 14:24:00,
2013-09-22 08:39:00,62.6,51.0,25.02,WNW,290,1.0,2.0,66,0.00,,,0.00,weatherlink.com 1.10,2013-09-22 14:39:00,
2013-09-22 08:54:00,66.4,49.0,25.02,West,270,2.0,5.0,54,0.00,,,0.00,weatherlink.com 1.10,2013-09-22 14:54:00,
2013-09-22 09:09:00,70.4,48.0,25.02,West,269,4.0,6.0,45,0.00,,,0.00,weatherlink.com 1.10,2013-09-22 15:09:00,
2013-09-22 09:24:00,72.6,48.0,25.02,WNW,287,2.0,5.0,42,0.00,,,0.00,weatherlink.com 1.10,2013-09-22 15:24:00,
2013-09-22 09:39:00,70.5,49.0,25.02,WSW,256,4.0,8.0,47,0.00,,,0.00,weatherlink.com 1.10,2013-09-22 15:39:00,
2013-09-22 09:54:00,71.0,49.0,25.02,NW,324,3.0,6.0,45,0.00,,,0.00,weatherlink.com 1.10,2013-09-22 15:54:00,
2013-09-22 10:09:00,72.7,49.0,25.02,NW,309,3.0,5.0,44,0.00,,,0.00,weatherlink.com 1.10,2013-09-22 16:09:00,
2013-09-22 10:24:00,76.2,49.0,25.02,WNW,298,3.0,5.0,39,0.00,,,0.00,weatherlink.com 1.10,2013-09-22 16:24:00,
2013-09-22 10:39:00,80.4,45.0,25.01,WSW,256,2.0,5.0,29,0.00,,,0.00,weatherlink.com 1.10,2013-09-22 16:39:00,
2013-09-22 10:54:00,82.8,45.0,25.01,WSW,252,4.0,6.0,26,0.00,,,0.00,weatherlink.com 1.10,2013-09-22 16:54:00,
2013-09-22 11:09:00,80.7,46.0,25.00,SW,225,3.0,6.0,29,0.00,,,0.00,weatherlink.com 1.10,2013-09-22 17:09:00,
2013-09-22 11:24:00,84.1,45.0,25.00,NW,320,1.0,5.0,25,0.00,,,0.00,weatherlink.com 1.10,2013-09-22 17:24:00,
2013-09-22 11:40:00,85.7,45.0,24.99,WSW,243,1.0,5.0,24,0.00,,,0.00,weatherlink.com 1.10,2013-09-22 17:40:00,
2013-09-22 11:55:00,87.1,45.0,24.98,NW,322,4.0,5.0,23,0.00,,,0.00,weatherlink.com 1.10,2013-09-22 17:55:00,
2013-09-22 12:10:00,85.9,44.0,24.98,West,260,5.0,7.0,23,0.00,,,0.00,weatherlink.com 1.10,2013-09-22 18:10:00,
2013-09-22 12:25:00,86.5,43.0,24.97,SW,225,4.0,4.0,22,0.00,,,0.00,weatherlink.com 1.10,2013-09-22 18:25:00,
2013-09-22 12:40:00,86.6,42.0,24.97,NW,325,3.0,5.0,21,0.00,,,0.00,weatherlink.com 1.10,2013-09-22 18:40:00,
2013-09-22 12:55:00,88.6,40.0,24.96,NNE,17,1.0,5.0,18,0.00,,,0.00,weatherlink.com 1.10,2013-09-22 18:55:00,
2013-09-22 13:10:00,87.8,38.0,24.95,SE,129,1.0,5.0,17,0.00,,,0.00,weatherlink.com 1.10,2013-09-22 19:10:00,
2013-09-22 13:25:00,86.4,38.0,24.95,SE,124,7.0,8.0,18,0.00,,,0.00,weatherlink.com 1.10,2013-09-22 19:25:00,
2013-09-22 13:40:00,87.9,39.0,24.94,NW,314,2.0,4.0,18,0.00,,,0.00,weatherlink.com 1.10,2013-09-22 19:40:00,
2013-09-22 13:55:00,88.9,40.0,24.94,ESE,114,1.0,3.0,18,0.00,,,0.00,weatherlink.com 1.10,2013-09-22 19:55:00,
2013-09-22 14:10:00,86.3,42.0,24.94,ESE,107,1.0,6.0,21,0.00,,,0.00,weatherlink.com 1.10,2013-09-22 20:10:00,
2013-09-22 14:25:00,86.1,39.0,24.93,ESE,104,3.0,10.0,19,0.00,,,0.00,weatherlink.com 1.10,2013-09-22 20:25:00,
2013-09-22 14:40:00,86.0,43.0,24.93,ESE,105,2.0,7.0,22,0.00,,,0.00,weatherlink.com 1.10,2013-09-22 20:40:00,
2013-09-22 14:55:00,86.2,43.0,24.92,ESE,104,2.0,8.0,22,0.00,,,0.00,weatherlink.com 1.10,2013-09-22 20:55:00,
2013-09-22 15:10:00,86.7,44.0,24.91,SE,129,4.0,7.0,22,0.00,,,0.00,weatherlink.com 1.10,2013-09-22 21:10:00,
2013-09-22 15:25:00,86.3,43.0,24.91,ENE,72,2.0,5.0,22,0.00,,,0.00,weatherlink.com 1.10,2013-09-22 21:25:00,
2013-09-22 15:40:00,85.8,45.0,24.90,ESE,120,3.0,8.0,24,0.00,,,0.00,weatherlink.com 1.10,2013-09-22 21:40:00,
2013-09-22 15:55:00,84.2,47.0,24.90,East,97,2.0,6.0,27,0.00,,,0.00,weatherlink.com 1.10,2013-09-22 21:55:00,
2013-09-22 16:10:00,-999.0,-99.9,24.89,North,-999,-999.0,-999.0,-999,0.00,,,0.00,weatherlink.com 1.10,2013-09-22 22:10:00,
2013-09-22 16:25:00,-999.0,-99.9,24.89,North,-999,-999.0,-999.0,-999,0.00,,,0.00,weatherlink.com 1.10,2013-09-22 22:25:00,
2013-09-22 16:40:00,-999.0,-99.9,24.89,North,-999,-999.0,-999.0,-999,0.00,,,0.00,weatherlink.com 1.10,2013-09-22 22:40:00,
2013-09-22 16:55:00,-999.0,-99.9,24.88,North,-999,-999.0,-999.0,-999,0.00,,,0.00,weatherlink.com 1.10,2013-09-22 22:55:00,
2013-09-22 17:11:00,-999.0,-99.9,24.88,North,-999,-999.0,-999.0,-999,0.00,,,0.00,weatherlink.com 1.10,2013-09-22 23:11:00,
2013-09-22 17:26:00,-999.0,-99.9,24.87,North,-999,-999.0,-999.0,-999,0.00,,,0.00,weatherlink.com 1.10,2013-09-22 23:26:00,
2013-09-22 17:41:00,-999.0,-99.9,24.87,North,-999,-999.0,-999.0,-999,0.00,,,0.00,weatherlink.com 1.10,2013-09-22 23:41:00,
2013-09-22 17:56:00,-999.0,-99.9,24.89,North,-999,-999.0,-999.0,-999,0.00,,,0.00,weatherlink.com 1.10,2013-09-22 23:56:00,
2013-09-22 18:11:00,-999.0,-99.9,24.91,North,-999,-999.0,-999.0,-999,0.00,,,0.00,weatherlink.com 1.10,2013-09-23 00:11:00,
2013-09-22 18:26:00,-999.0,-99.9,24.89,North,-999,-999.0,-999.0,-999,0.00,,,0.00,weatherlink.com 1.10,2013-09-23 00:26:00,
2013-09-22 18:41:00,-999.0,-99.9,24.89,North,-999,-999.0,-999.0,-999,0.00,,,0.00,weatherlink.com 1.10,2013-09-23 00:41:00,
2013-09-22 18:56:00,-999.0,-99.9,24.89,North,-999,-999.0,-999.0,-999,0.00,,,0.00,weatherlink.com 1.10,2013-09-23 00:56:00,
2013-09-22 19:11:00,-999.0,-99.9,24.92,North,-999,-999.0,-999.0,-999,0.00,,,0.00,weatherlink.com 1.10,2013-09-23 01:11:00,
2013-09-22 19:26:00,-999.0,-99.9,24.91,North,-999,-999.0,-999.0,-999,0.00,,,0.00,weatherlink.com 1.10,2013-09-23 01:26:00,
2013-09-22 19:41:00,-999.0,-99.9,24.92,North,-999,-999.0,-999.0,-999,0.00,,,0.00,weatherlink.com 1.10,2013-09-23 01:41:00,
2013-09-22 19:56:00,-999.0,-99.9,24.93,North,-999,-999.0,-999.0,-999,0.00,,,0.00,weatherlink.com 1.10,2013-09-23 01:56:00,
2013-09-22 20:11:00,-999.0,-99.9,24.93,North,-999,-999.0,-999.0,-999,0.00,,,0.00,weatherlink.com 1.10,2013-09-23 02:11:00,
2013-09-22 20:26:00,-999.0,-99.9,24.92,North,-999,-999.0,-999.0,-999,0.00,,,0.00,weatherlink.com 1.10,2013-09-23 02:26:00,
2013-09-22 20:41:00,-999.0,-99.9,24.94,North,-999,-999.0,-999.0,-999,0.00,,,0.00,weatherlink.com 1.10,2013-09-23 02:41:00,
2013-09-22 20:56:00,-999.0,-99.9,24.95,North,-999,-999.0,-999.0,-999,0.00,,,0.00,weatherlink.com 1.10,2013-09-23 02:56:00,
2013-09-22 21:11:00,-999.0,-99.9,24.97,North,-999,-999.0,-999.0,-999,0.00,,,0.00,weatherlink.com 1.10,2013-09-23 03:11:00,
2013-09-22 21:26:00,-999.0,-99.9,24.96,North,-999,-999.0,-999.0,-999,0.00,,,0.00,weatherlink.com 1.10,2013-09-23 03:26:00,
2013-09-22 21:41:00,-999.0,-99.9,24.95,North,-999,-999.0,-999.0,-999,0.00,,,0.00,weatherlink.com 1.10,2013-09-23 03:41:00,
2013-09-22 21:57:00,-999.0,-99.9,25.01,North,-999,-999.0,-999.0,-999,0.00,,,0.00,weatherlink.com 1.10,2013-09-23 03:57:00,
2013-09-22 22:12:00,-999.0,-99.9,24.99,North,-999,-999.0,-999.0,-999,0.00,,,0.00,weatherlink.com 1.10,2013-09-23 04:12:00,
2013-09-22 22:27:00,-999.0,-99.9,24.98,North,-999,-999.0,-999.0,-999,0.00,,,0.00,weatherlink.com 1.10,2013-09-23 04:27:00,
2013-09-22 22:42:00,-999.0,-99.9,24.96,North,-999,-999.0,-999.0,-999,0.00,,,0.00,weatherlink.com 1.10,2013-09-23 04:42:00,
2013-09-22 22:57:00,-999.0,-99.9,24.88,North,-999,-999.0,-999.0,-999,0.00,,,0.00,weatherlink.com 1.10,2013-09-23 04:57:00,
2013-09-22 23:12:00,-999.0,-99.9,24.89,North,-999,-999.0,-999.0,-999,0.00,,,0.00,weatherlink.com 1.10,2013-09-23 05:12:00,
2013-09-22 23:27:00,-999.0,-99.9,24.89,North,-999,-999.0,-999.0,-999,0.00,,,0.00,weatherlink.com 1.10,2013-09-23 05:27:00,
2013-09-22 23:42:00,-999.0,-99.9,24.89,North,-999,-999.0,-999.0,-999,0.00,,,0.00,weatherlink.com 1.10,2013-09-23 05:42:00,
2013-09-22 23:57:00,-999.0,-99.9,24.89,North,-999,-999.0,-999.0,-999,0.00,,,0.00,weatherlink.com 1.10,2013-09-23 05:57:00,